sensor_id;sensor_type;location;lat;lon;timestamp;temperature;humidity
35804;DHT22;21924;51.934;7.414;2024-01-15T00:00:57;1.30;99.90
35804;DHT22;21924;51.934;7.414;2024-01-15T00:03:41;1.30;99.90
35804;DHT22;21924;51.934;7.414;2024-01-15T00:06:25;1.20;99.90
35804;DHT22;21924;51.934;7.414;2024-01-15T00:09:11;1.30;99.90
35804;DHT22;21924;51.934;7.414;2024-01-15T00:11:55;1.30;99.90
35804;DHT22;21924;51.934;7.414;2024-01-15T00:14:39;1.30;99.90
35804;DHT22;21924;51.934;7.414;2024-01-15T00:17:23;1.40;99.90
35804;DHT22;21924;51.934;7.414;2024-01-15T00:20:08;1.30;99.90
35804;DHT22;21924;51.934;7.414;2024-01-15T00:22:52;1.20;99.90
35804;DHT22;21924;51.934;7.414;2024-01-15T00:25:36;1.30;99.90
35804;DHT22;21924;51.934;7.414;2024-01-15T00:28:20;1.30;99.90
35804;DHT22;21924;51.934;7.414;2024-01-15T00:31:05;1.30;99.90
35804;DHT22;21924;51.934;7.414;2024-01-15T00:33:49;1.30;99.90
35804;DHT22;21924;51.934;7.414;2024-01-15T00:36:34;1.30;99.90
35804;DHT22;21924;51.934;7.414;2024-01-15T00:39:18;1.30;99.90
35804;DHT22;21924;51.934;7.414;2024-01-15T00:42:02;1.30;99.90
35804;DHT22;21924;51.934;7.414;2024-01-15T00:44:47;1.30;99.90
35804;DHT22;21924;51.934;7.414;2024-01-15T00:47:31;1.30;99.90
35804;DHT22;21924;51.934;7.414;2024-01-15T00:50:15;1.30;99.90
35804;DHT22;21924;51.934;7.414;2024-01-15T00:53:02;1.30;99.90
35804;DHT22;21924;51.934;7.414;2024-01-15T00:55:47;1.30;99.90
35804;DHT22;21924;51.934;7.414;2024-01-15T00:58:31;1.30;99.90
35804;DHT22;21924;51.934;7.414;2024-01-15T01:01:15;1.30;99.90
35804;DHT22;21924;51.934;7.414;2024-01-15T01:04:00;1.30;99.90
35804;DHT22;21924;51.934;7.414;2024-01-15T01:06:44;1.30;99.90
35804;DHT22;21924;51.934;7.414;2024-01-15T01:09:28;1.30;99.90
35804;DHT22;21924;51.934;7.414;2024-01-15T01:12:14;1.30;99.90
35804;DHT22;21924;51.934;7.414;2024-01-15T01:14:58;1.30;99.90
35804;DHT22;21924;51.934;7.414;2024-01-15T01:17:43;1.30;99.90
35804;DHT22;21924;51.934;7.414;2024-01-15T01:20:27;1.30;99.90
35804;DHT22;21924;51.934;7.414;2024-01-15T01:23:12;1.30;99.90
35804;DHT22;21924;51.934;7.414;2024-01-15T01:25:56;1.30;99.90
35804;DHT22;21924;51.934;7.414;2024-01-15T01:28:40;1.30;99.90
35804;DHT22;21924;51.934;7.414;2024-01-15T01:31:24;1.30;99.90
35804;DHT22;21924;51.934;7.414;2024-01-15T01:34:09;1.30;99.90
35804;DHT22;21924;51.934;7.414;2024-01-15T01:36:53;1.30;99.90
35804;DHT22;21924;51.934;7.414;2024-01-15T01:39:37;1.30;99.90
35804;DHT22;21924;51.934;7.414;2024-01-15T01:42:21;1.30;99.90
35804;DHT22;21924;51.934;7.414;2024-01-15T01:45:06;1.30;99.90
35804;DHT22;21924;51.934;7.414;2024-01-15T01:47:50;1.30;99.90
35804;DHT22;21924;51.934;7.414;2024-01-15T01:50:35;1.20;99.90
35804;DHT22;21924;51.934;7.414;2024-01-15T01:53:19;1.20;99.90
35804;DHT22;21924;51.934;7.414;2024-01-15T01:56:04;1.20;99.90
35804;DHT22;21924;51.934;7.414;2024-01-15T01:58:48;1.10;99.90
35804;DHT22;21924;51.934;7.414;2024-01-15T02:01:35;1.00;99.90
35804;DHT22;21924;51.934;7.414;2024-01-15T02:04:20;1.00;99.90
35804;DHT22;21924;51.934;7.414;2024-01-15T02:07:06;0.90;99.90
35804;DHT22;21924;51.934;7.414;2024-01-15T02:09:50;0.80;99.90
35804;DHT22;21924;51.934;7.414;2024-01-15T02:12:34;0.90;99.90
35804;DHT22;21924;51.934;7.414;2024-01-15T02:15:19;0.90;99.90
35804;DHT22;21924;51.934;7.414;2024-01-15T02:18:05;0.90;99.90
35804;DHT22;21924;51.934;7.414;2024-01-15T02:20:51;0.90;99.90
35804;DHT22;21924;51.934;7.414;2024-01-15T02:23:35;0.90;99.90
35804;DHT22;21924;51.934;7.414;2024-01-15T02:26:19;0.90;99.90
35804;DHT22;21924;51.934;7.414;2024-01-15T02:29:05;0.90;99.90
35804;DHT22;21924;51.934;7.414;2024-01-15T02:31:50;1.00;99.90
35804;DHT22;21924;51.934;7.414;2024-01-15T02:34:35;1.00;99.90
35804;DHT22;21924;51.934;7.414;2024-01-15T02:37:19;1.10;99.90
35804;DHT22;21924;51.934;7.414;2024-01-15T02:43:52;1.10;99.90
35804;DHT22;21924;51.934;7.414;2024-01-15T02:53:58;1.00;99.90
35804;DHT22;21924;51.934;7.414;2024-01-15T02:56:42;0.90;99.90
35804;DHT22;21924;51.934;7.414;2024-01-15T02:59:26;0.90;99.90
35804;DHT22;21924;51.934;7.414;2024-01-15T03:02:11;0.90;99.90
35804;DHT22;21924;51.934;7.414;2024-01-15T03:04:55;0.90;99.90
35804;DHT22;21924;51.934;7.414;2024-01-15T03:07:39;0.80;99.90
35804;DHT22;21924;51.934;7.414;2024-01-15T03:10:24;0.80;99.90
35804;DHT22;21924;51.934;7.414;2024-01-15T03:13:08;0.70;99.90
35804;DHT22;21924;51.934;7.414;2024-01-15T03:15:52;0.70;99.90
35804;DHT22;21924;51.934;7.414;2024-01-15T03:18:36;0.70;99.90
35804;DHT22;21924;51.934;7.414;2024-01-15T03:21:21;0.70;99.90
35804;DHT22;21924;51.934;7.414;2024-01-15T03:24:05;0.80;99.90
35804;DHT22;21924;51.934;7.414;2024-01-15T03:26:50;0.70;99.90
35804;DHT22;21924;51.934;7.414;2024-01-15T03:29:34;0.70;99.90
35804;DHT22;21924;51.934;7.414;2024-01-15T03:32:18;0.70;99.90
35804;DHT22;21924;51.934;7.414;2024-01-15T03:35:04;0.70;99.90
35804;DHT22;21924;51.934;7.414;2024-01-15T03:37:48;0.70;99.90
35804;DHT22;21924;51.934;7.414;2024-01-15T03:40:32;0.70;99.90
35804;DHT22;21924;51.934;7.414;2024-01-15T03:43:16;0.70;99.90
35804;DHT22;21924;51.934;7.414;2024-01-15T03:46:01;0.70;99.90
35804;DHT22;21924;51.934;7.414;2024-01-15T03:48:46;0.70;99.90
35804;DHT22;21924;51.934;7.414;2024-01-15T03:51:30;0.70;99.90
35804;DHT22;21924;51.934;7.414;2024-01-15T03:54:14;0.70;99.90
35804;DHT22;21924;51.934;7.414;2024-01-15T03:56:58;0.70;99.90
35804;DHT22;21924;51.934;7.414;2024-01-15T03:59:43;0.60;99.90
35804;DHT22;21924;51.934;7.414;2024-01-15T04:02:27;0.70;99.90
35804;DHT22;21924;51.934;7.414;2024-01-15T04:05:11;0.70;99.90
35804;DHT22;21924;51.934;7.414;2024-01-15T04:07:56;0.70;99.90
35804;DHT22;21924;51.934;7.414;2024-01-15T04:10:40;0.70;99.90
35804;DHT22;21924;51.934;7.414;2024-01-15T04:13:24;0.80;99.90
35804;DHT22;21924;51.934;7.414;2024-01-15T04:16:09;0.80;99.90
35804;DHT22;21924;51.934;7.414;2024-01-15T04:18:53;0.80;99.90
35804;DHT22;21924;51.934;7.414;2024-01-15T04:21:37;0.80;99.90
35804;DHT22;21924;51.934;7.414;2024-01-15T04:24:22;0.80;99.90
35804;DHT22;21924;51.934;7.414;2024-01-15T04:27:07;0.90;99.90
35804;DHT22;21924;51.934;7.414;2024-01-15T04:29:51;0.90;99.90
35804;DHT22;21924;51.934;7.414;2024-01-15T04:32:36;0.90;99.90
35804;DHT22;21924;51.934;7.414;2024-01-15T04:35:20;0.90;99.90
35804;DHT22;21924;51.934;7.414;2024-01-15T04:38:04;1.00;99.90
35804;DHT22;21924;51.934;7.414;2024-01-15T04:40:49;1.00;99.90
35804;DHT22;21924;51.934;7.414;2024-01-15T04:43:33;1.00;99.90
35804;DHT22;21924;51.934;7.414;2024-01-15T04:46:17;1.00;99.90
35804;DHT22;21924;51.934;7.414;2024-01-15T04:49:02;1.00;99.90
35804;DHT22;21924;51.934;7.414;2024-01-15T04:51:46;1.00;99.90
35804;DHT22;21924;51.934;7.414;2024-01-15T04:54:30;1.00;99.90
35804;DHT22;21924;51.934;7.414;2024-01-15T04:57:14;1.00;99.90
35804;DHT22;21924;51.934;7.414;2024-01-15T04:59:59;1.00;99.90
35804;DHT22;21924;51.934;7.414;2024-01-15T05:02:43;1.00;99.90
35804;DHT22;21924;51.934;7.414;2024-01-15T05:05:27;1.00;99.90
35804;DHT22;21924;51.934;7.414;2024-01-15T05:08:11;1.00;99.90
35804;DHT22;21924;51.934;7.414;2024-01-15T05:10:55;0.90;99.90
35804;DHT22;21924;51.934;7.414;2024-01-15T05:13:39;0.90;99.90
35804;DHT22;21924;51.934;7.414;2024-01-15T05:16:24;0.80;99.90
35804;DHT22;21924;51.934;7.414;2024-01-15T05:19:08;0.80;99.90
35804;DHT22;21924;51.934;7.414;2024-01-15T05:21:53;0.90;99.90
35804;DHT22;21924;51.934;7.414;2024-01-15T05:24:37;0.90;99.90
35804;DHT22;21924;51.934;7.414;2024-01-15T05:27:21;0.90;99.90
35804;DHT22;21924;51.934;7.414;2024-01-15T05:30:06;1.00;99.90
35804;DHT22;21924;51.934;7.414;2024-01-15T05:33:00;1.00;99.90
35804;DHT22;21924;51.934;7.414;2024-01-15T05:39:26;1.00;99.90
35804;DHT22;21924;51.934;7.414;2024-01-15T05:42:10;0.90;99.90
35804;DHT22;21924;51.934;7.414;2024-01-15T05:44:54;1.00;99.90
35804;DHT22;21924;51.934;7.414;2024-01-15T05:47:39;0.90;99.90
35804;DHT22;21924;51.934;7.414;2024-01-15T05:50:23;1.00;99.90
35804;DHT22;21924;51.934;7.414;2024-01-15T05:53:07;0.90;99.90
35804;DHT22;21924;51.934;7.414;2024-01-15T05:55:51;0.90;99.90
35804;DHT22;21924;51.934;7.414;2024-01-15T05:58:36;0.90;99.90
35804;DHT22;21924;51.934;7.414;2024-01-15T06:01:20;0.90;99.90
35804;DHT22;21924;51.934;7.414;2024-01-15T06:04:04;1.00;99.90
35804;DHT22;21924;51.934;7.414;2024-01-15T06:06:49;1.00;99.90
35804;DHT22;21924;51.934;7.414;2024-01-15T06:09:33;0.90;99.90
35804;DHT22;21924;51.934;7.414;2024-01-15T06:12:17;0.80;99.90
35804;DHT22;21924;51.934;7.414;2024-01-15T06:15:02;0.80;99.90
35804;DHT22;21924;51.934;7.414;2024-01-15T06:17:46;0.80;99.90
35804;DHT22;21924;51.934;7.414;2024-01-15T06:20:30;0.80;99.90
35804;DHT22;21924;51.934;7.414;2024-01-15T06:23:15;0.90;99.90
35804;DHT22;21924;51.934;7.414;2024-01-15T06:25:59;0.90;99.90
35804;DHT22;21924;51.934;7.414;2024-01-15T06:28:44;0.90;99.90
35804;DHT22;21924;51.934;7.414;2024-01-15T06:31:28;0.90;99.90
35804;DHT22;21924;51.934;7.414;2024-01-15T06:34:15;0.90;99.90
35804;DHT22;21924;51.934;7.414;2024-01-15T06:36:59;0.90;99.90
35804;DHT22;21924;51.934;7.414;2024-01-15T06:39:43;0.90;99.90
35804;DHT22;21924;51.934;7.414;2024-01-15T06:42:27;0.90;99.90
35804;DHT22;21924;51.934;7.414;2024-01-15T06:45:12;0.90;99.90
35804;DHT22;21924;51.934;7.414;2024-01-15T06:47:56;0.90;99.90
35804;DHT22;21924;51.934;7.414;2024-01-15T06:50:40;0.90;99.90
35804;DHT22;21924;51.934;7.414;2024-01-15T06:53:25;0.90;99.90
35804;DHT22;21924;51.934;7.414;2024-01-15T06:56:09;0.90;99.90
35804;DHT22;21924;51.934;7.414;2024-01-15T06:58:53;0.90;99.90
35804;DHT22;21924;51.934;7.414;2024-01-15T07:01:38;0.90;99.90
35804;DHT22;21924;51.934;7.414;2024-01-15T07:04:22;0.90;99.90
35804;DHT22;21924;51.934;7.414;2024-01-15T07:07:06;0.80;99.90
35804;DHT22;21924;51.934;7.414;2024-01-15T07:09:51;0.80;99.90
35804;DHT22;21924;51.934;7.414;2024-01-15T07:12:36;0.80;99.90
35804;DHT22;21924;51.934;7.414;2024-01-15T07:15:21;0.80;99.90
35804;DHT22;21924;51.934;7.414;2024-01-15T07:18:05;0.80;99.90
35804;DHT22;21924;51.934;7.414;2024-01-15T07:20:49;0.80;99.90
35804;DHT22;21924;51.934;7.414;2024-01-15T07:23:33;0.80;99.90
35804;DHT22;21924;51.934;7.414;2024-01-15T07:26:18;0.80;99.90
35804;DHT22;21924;51.934;7.414;2024-01-15T07:29:02;0.90;99.90
35804;DHT22;21924;51.934;7.414;2024-01-15T07:31:52;0.80;99.90
35804;DHT22;21924;51.934;7.414;2024-01-15T07:34:36;0.90;99.90
35804;DHT22;21924;51.934;7.414;2024-01-15T07:37:20;0.80;99.90
35804;DHT22;21924;51.934;7.414;2024-01-15T07:40:05;0.90;99.90
35804;DHT22;21924;51.934;7.414;2024-01-15T07:42:51;0.90;99.90
35804;DHT22;21924;51.934;7.414;2024-01-15T07:45:35;0.90;99.90
35804;DHT22;21924;51.934;7.414;2024-01-15T07:48:20;0.90;99.90
35804;DHT22;21924;51.934;7.414;2024-01-15T07:51:04;0.90;99.90
35804;DHT22;21924;51.934;7.414;2024-01-15T07:53:48;0.90;99.90
35804;DHT22;21924;51.934;7.414;2024-01-15T07:56:33;1.00;99.90
35804;DHT22;21924;51.934;7.414;2024-01-15T07:59:17;0.90;99.90
35804;DHT22;21924;51.934;7.414;2024-01-15T08:02:02;1.00;99.90
35804;DHT22;21924;51.934;7.414;2024-01-15T08:04:46;0.90;99.90
35804;DHT22;21924;51.934;7.414;2024-01-15T08:07:30;1.00;99.90
35804;DHT22;21924;51.934;7.414;2024-01-15T08:10:15;1.00;99.90
35804;DHT22;21924;51.934;7.414;2024-01-15T08:13:00;1.00;99.90
35804;DHT22;21924;51.934;7.414;2024-01-15T08:15:44;1.10;99.90
35804;DHT22;21924;51.934;7.414;2024-01-15T08:18:28;1.10;99.90
35804;DHT22;21924;51.934;7.414;2024-01-15T08:21:13;1.10;99.90
35804;DHT22;21924;51.934;7.414;2024-01-15T08:23:59;1.00;99.90
35804;DHT22;21924;51.934;7.414;2024-01-15T08:26:43;1.00;99.90
35804;DHT22;21924;51.934;7.414;2024-01-15T08:29:28;1.00;99.90
35804;DHT22;21924;51.934;7.414;2024-01-15T08:32:12;1.00;99.90
35804;DHT22;21924;51.934;7.414;2024-01-15T08:34:59;1.00;99.90
35804;DHT22;21924;51.934;7.414;2024-01-15T08:37:43;1.00;99.90
35804;DHT22;21924;51.934;7.414;2024-01-15T08:40:27;1.00;99.90
35804;DHT22;21924;51.934;7.414;2024-01-15T08:43:12;1.10;99.90
35804;DHT22;21924;51.934;7.414;2024-01-15T08:45:57;1.10;99.90
35804;DHT22;21924;51.934;7.414;2024-01-15T08:48:41;1.10;99.90
35804;DHT22;21924;51.934;7.414;2024-01-15T08:51:25;1.20;99.90
35804;DHT22;21924;51.934;7.414;2024-01-15T08:54:10;1.30;99.90
35804;DHT22;21924;51.934;7.414;2024-01-15T08:56:54;1.20;99.90
35804;DHT22;21924;51.934;7.414;2024-01-15T08:59:38;1.10;99.90
35804;DHT22;21924;51.934;7.414;2024-01-15T09:02:23;1.20;99.90
35804;DHT22;21924;51.934;7.414;2024-01-15T09:05:07;1.20;99.90
35804;DHT22;21924;51.934;7.414;2024-01-15T09:07:52;1.20;99.90
35804;DHT22;21924;51.934;7.414;2024-01-15T09:10:36;1.30;99.90
35804;DHT22;21924;51.934;7.414;2024-01-15T09:13:20;1.30;99.90
35804;DHT22;21924;51.934;7.414;2024-01-15T09:16:05;1.30;99.90
35804;DHT22;21924;51.934;7.414;2024-01-15T09:18:49;1.30;99.90
35804;DHT22;21924;51.934;7.414;2024-01-15T09:21:33;1.30;99.90
35804;DHT22;21924;51.934;7.414;2024-01-15T09:24:18;1.30;99.90
35804;DHT22;21924;51.934;7.414;2024-01-15T09:27:02;1.40;99.90
35804;DHT22;21924;51.934;7.414;2024-01-15T09:29:46;1.40;99.90
35804;DHT22;21924;51.934;7.414;2024-01-15T09:32:31;1.30;99.90
35804;DHT22;21924;51.934;7.414;2024-01-15T09:35:16;1.30;99.90
35804;DHT22;21924;51.934;7.414;2024-01-15T09:38:01;1.30;99.90
35804;DHT22;21924;51.934;7.414;2024-01-15T09:40:46;1.40;99.90
35804;DHT22;21924;51.934;7.414;2024-01-15T09:43:31;1.30;99.90
35804;DHT22;21924;51.934;7.414;2024-01-15T09:46:15;1.30;99.90
35804;DHT22;21924;51.934;7.414;2024-01-15T09:49:01;1.30;99.90
35804;DHT22;21924;51.934;7.414;2024-01-15T09:51:45;1.40;99.90
35804;DHT22;21924;51.934;7.414;2024-01-15T09:54:32;1.40;99.90
35804;DHT22;21924;51.934;7.414;2024-01-15T09:57:17;1.40;99.90
35804;DHT22;21924;51.934;7.414;2024-01-15T10:00:02;1.40;99.90
35804;DHT22;21924;51.934;7.414;2024-01-15T10:02:50;1.50;99.90
35804;DHT22;21924;51.934;7.414;2024-01-15T10:05:38;1.50;99.90
35804;DHT22;21924;51.934;7.414;2024-01-15T10:08:23;1.50;99.90
35804;DHT22;21924;51.934;7.414;2024-01-15T10:11:09;1.60;99.90
35804;DHT22;21924;51.934;7.414;2024-01-15T10:13:53;1.60;99.90
35804;DHT22;21924;51.934;7.414;2024-01-15T10:16:41;1.70;99.90
35804;DHT22;21924;51.934;7.414;2024-01-15T10:19:25;1.70;99.90
35804;DHT22;21924;51.934;7.414;2024-01-15T10:22:10;1.60;99.90
35804;DHT22;21924;51.934;7.414;2024-01-15T10:24:54;1.50;99.90
35804;DHT22;21924;51.934;7.414;2024-01-15T10:27:38;1.50;99.90
35804;DHT22;21924;51.934;7.414;2024-01-15T10:30:24;1.60;99.90
35804;DHT22;21924;51.934;7.414;2024-01-15T10:33:08;1.70;99.90
35804;DHT22;21924;51.934;7.414;2024-01-15T10:35:56;1.80;99.90
35804;DHT22;21924;51.934;7.414;2024-01-15T10:39:01;1.70;99.90
35804;DHT22;21924;51.934;7.414;2024-01-15T10:41:47;1.70;99.90
35804;DHT22;21924;51.934;7.414;2024-01-15T10:44:31;1.80;99.90
35804;DHT22;21924;51.934;7.414;2024-01-15T10:47:18;1.90;99.90
35804;DHT22;21924;51.934;7.414;2024-01-15T10:50:03;1.90;99.90
35804;DHT22;21924;51.934;7.414;2024-01-15T10:52:51;2.00;99.90
35804;DHT22;21924;51.934;7.414;2024-01-15T10:55:37;2.00;99.90
35804;DHT22;21924;51.934;7.414;2024-01-15T10:58:34;2.10;99.90
35804;DHT22;21924;51.934;7.414;2024-01-15T11:01:31;2.20;99.90
35804;DHT22;21924;51.934;7.414;2024-01-15T11:04:16;2.20;99.90
35804;DHT22;21924;51.934;7.414;2024-01-15T11:07:02;2.20;99.90
35804;DHT22;21924;51.934;7.414;2024-01-15T11:09:47;2.20;99.90
35804;DHT22;21924;51.934;7.414;2024-01-15T11:12:58;2.10;99.90
35804;DHT22;21924;51.934;7.414;2024-01-15T11:16:01;2.00;99.90
35804;DHT22;21924;51.934;7.414;2024-01-15T11:19:06;2.00;99.90
35804;DHT22;21924;51.934;7.414;2024-01-15T11:21:52;1.90;99.90
35804;DHT22;21924;51.934;7.414;2024-01-15T11:24:55;2.10;99.90
35804;DHT22;21924;51.934;7.414;2024-01-15T11:27:51;2.10;99.90
35804;DHT22;21924;51.934;7.414;2024-01-15T11:30:55;2.20;99.90
35804;DHT22;21924;51.934;7.414;2024-01-15T11:33:49;2.10;99.90
35804;DHT22;21924;51.934;7.414;2024-01-15T11:42:17;2.30;99.90
35804;DHT22;21924;51.934;7.414;2024-01-15T11:45:02;2.30;99.90
35804;DHT22;21924;51.934;7.414;2024-01-15T11:48:10;2.50;99.90
35804;DHT22;21924;51.934;7.414;2024-01-15T11:50:56;2.70;99.90
35804;DHT22;21924;51.934;7.414;2024-01-15T11:53:49;2.70;99.90
35804;DHT22;21924;51.934;7.414;2024-01-15T11:56:36;2.70;99.90
35804;DHT22;21924;51.934;7.414;2024-01-15T11:59:20;2.60;99.90
35804;DHT22;21924;51.934;7.414;2024-01-15T12:02:05;2.40;99.90
35804;DHT22;21924;51.934;7.414;2024-01-15T12:04:49;2.40;99.90
35804;DHT22;21924;51.934;7.414;2024-01-15T12:07:34;2.50;99.90
35804;DHT22;21924;51.934;7.414;2024-01-15T12:10:21;2.50;99.90
35804;DHT22;21924;51.934;7.414;2024-01-15T12:13:16;2.50;99.90
35804;DHT22;21924;51.934;7.414;2024-01-15T13:18:42;2.20;99.90
35804;DHT22;21924;51.934;7.414;2024-01-15T13:47:38;2.20;99.90
35804;DHT22;21924;51.934;7.414;2024-01-15T14:24:42;2.10;99.90
35804;DHT22;21924;51.934;7.414;2024-01-15T14:49:34;1.70;99.90
35804;DHT22;21924;51.934;7.414;2024-01-15T14:59:48;1.70;99.90
35804;DHT22;21924;51.934;7.414;2024-01-15T15:06:51;1.60;99.90
35804;DHT22;21924;51.934;7.414;2024-01-15T15:09:48;1.50;99.90
35804;DHT22;21924;51.934;7.414;2024-01-15T15:20:13;1.40;99.90
35804;DHT22;21924;51.934;7.414;2024-01-15T15:22:58;1.30;99.90
35804;DHT22;21924;51.934;7.414;2024-01-15T15:36:49;1.00;99.90
35804;DHT22;21924;51.934;7.414;2024-01-15T15:43:49;1.00;99.90
35804;DHT22;21924;51.934;7.414;2024-01-15T16:01:53;0.90;99.90
35804;DHT22;21924;51.934;7.414;2024-01-15T16:04:52;0.80;99.90
35804;DHT22;21924;51.934;7.414;2024-01-15T16:11:51;0.80;99.90
35804;DHT22;21924;51.934;7.414;2024-01-15T16:14:54;0.70;99.90
35804;DHT22;21924;51.934;7.414;2024-01-15T16:50:56;0.70;99.90
35804;DHT22;21924;51.934;7.414;2024-01-15T16:57:56;0.60;99.90
35804;DHT22;21924;51.934;7.414;2024-01-15T17:08:01;0.50;99.90
35804;DHT22;21924;51.934;7.414;2024-01-15T17:22:16;0.80;99.90
35804;DHT22;21924;51.934;7.414;2024-01-15T17:29:12;0.90;99.90
35804;DHT22;21924;51.934;7.414;2024-01-15T17:43:47;0.80;99.90
35804;DHT22;21924;51.934;7.414;2024-01-15T17:57:57;0.90;99.90
35804;DHT22;21924;51.934;7.414;2024-01-15T18:01:05;0.90;99.90
35804;DHT22;21924;51.934;7.414;2024-01-15T18:08:02;1.00;99.90
35804;DHT22;21924;51.934;7.414;2024-01-15T18:11:05;1.10;99.90
35804;DHT22;21924;51.934;7.414;2024-01-15T18:14:27;1.10;99.90
35804;DHT22;21924;51.934;7.414;2024-01-15T18:17:33;1.10;99.90
35804;DHT22;21924;51.934;7.414;2024-01-15T18:20:22;1.10;99.90
35804;DHT22;21924;51.934;7.414;2024-01-15T18:23:12;1.20;99.90
35804;DHT22;21924;51.934;7.414;2024-01-15T18:26:01;1.10;99.90
35804;DHT22;21924;51.934;7.414;2024-01-15T18:28:46;1.20;99.90
35804;DHT22;21924;51.934;7.414;2024-01-15T18:31:31;1.10;99.90
35804;DHT22;21924;51.934;7.414;2024-01-15T18:34:15;1.10;99.90
35804;DHT22;21924;51.934;7.414;2024-01-15T18:36:59;1.10;99.90
35804;DHT22;21924;51.934;7.414;2024-01-15T18:39:46;1.10;99.90
35804;DHT22;21924;51.934;7.414;2024-01-15T18:42:31;1.10;99.90
35804;DHT22;21924;51.934;7.414;2024-01-15T18:45:15;1.20;99.90
35804;DHT22;21924;51.934;7.414;2024-01-15T18:47:59;1.20;99.90
35804;DHT22;21924;51.934;7.414;2024-01-15T18:50:44;1.20;99.90
35804;DHT22;21924;51.934;7.414;2024-01-15T18:53:28;1.20;99.90
35804;DHT22;21924;51.934;7.414;2024-01-15T18:56:12;1.20;99.90
35804;DHT22;21924;51.934;7.414;2024-01-15T18:58:57;1.20;99.90
35804;DHT22;21924;51.934;7.414;2024-01-15T19:01:41;1.20;99.90
35804;DHT22;21924;51.934;7.414;2024-01-15T19:04:27;1.20;99.90
35804;DHT22;21924;51.934;7.414;2024-01-15T19:07:11;1.20;99.90
35804;DHT22;21924;51.934;7.414;2024-01-15T19:10:19;1.20;99.90
35804;DHT22;21924;51.934;7.414;2024-01-15T19:13:33;1.20;99.90
35804;DHT22;21924;51.934;7.414;2024-01-15T19:20:55;1.20;99.90
35804;DHT22;21924;51.934;7.414;2024-01-15T19:23:40;1.20;99.90
35804;DHT22;21924;51.934;7.414;2024-01-15T19:26:59;1.30;99.90
35804;DHT22;21924;51.934;7.414;2024-01-15T19:34:00;1.20;99.90
35804;DHT22;21924;51.934;7.414;2024-01-15T19:37:11;1.20;99.90
35804;DHT22;21924;51.934;7.414;2024-01-15T19:40:11;1.10;99.90
35804;DHT22;21924;51.934;7.414;2024-01-15T19:42:57;1.00;99.90
35804;DHT22;21924;51.934;7.414;2024-01-15T19:45:42;1.10;99.90
35804;DHT22;21924;51.934;7.414;2024-01-15T19:49:08;1.10;99.90
35804;DHT22;21924;51.934;7.414;2024-01-15T19:53:04;1.00;99.90
35804;DHT22;21924;51.934;7.414;2024-01-15T19:56:20;1.00;99.90
35804;DHT22;21924;51.934;7.414;2024-01-15T19:59:09;1.00;99.90
35804;DHT22;21924;51.934;7.414;2024-01-15T20:02:12;0.90;99.90
35804;DHT22;21924;51.934;7.414;2024-01-15T20:05:14;0.90;99.90
35804;DHT22;21924;51.934;7.414;2024-01-15T20:08:41;0.90;99.90
35804;DHT22;21924;51.934;7.414;2024-01-15T20:11:48;0.90;99.90
35804;DHT22;21924;51.934;7.414;2024-01-15T20:15:04;0.90;99.90
35804;DHT22;21924;51.934;7.414;2024-01-15T20:25:15;1.00;99.90
35804;DHT22;21924;51.934;7.414;2024-01-15T20:28:16;1.00;99.90
35804;DHT22;21924;51.934;7.414;2024-01-15T20:31:16;1.00;99.90
35804;DHT22;21924;51.934;7.414;2024-01-15T20:41:22;0.90;99.90
35804;DHT22;21924;51.934;7.414;2024-01-15T20:44:14;0.80;99.90
35804;DHT22;21924;51.934;7.414;2024-01-15T20:46:58;0.80;99.90
35804;DHT22;21924;51.934;7.414;2024-01-15T20:50:19;0.80;99.90
35804;DHT22;21924;51.934;7.414;2024-01-15T20:57:19;0.90;99.90
35804;DHT22;21924;51.934;7.414;2024-01-15T21:00:41;1.00;99.90
35804;DHT22;21924;51.934;7.414;2024-01-15T21:07:10;1.00;99.90
35804;DHT22;21924;51.934;7.414;2024-01-15T21:10:00;1.00;99.90
35804;DHT22;21924;51.934;7.414;2024-01-15T21:16:22;1.00;99.90
35804;DHT22;21924;51.934;7.414;2024-01-15T21:19:22;1.00;99.90
35804;DHT22;21924;51.934;7.414;2024-01-15T21:25:53;1.00;99.90
35804;DHT22;21924;51.934;7.414;2024-01-15T21:32:24;1.10;99.90
35804;DHT22;21924;51.934;7.414;2024-01-15T21:35:09;1.00;99.90
35804;DHT22;21924;51.934;7.414;2024-01-15T21:38:27;1.00;99.90
35804;DHT22;21924;51.934;7.414;2024-01-15T21:41:17;1.00;99.90
35804;DHT22;21924;51.934;7.414;2024-01-15T21:51:17;0.80;99.90
35804;DHT22;21924;51.934;7.414;2024-01-15T21:58:23;0.60;99.90
35804;DHT22;21924;51.934;7.414;2024-01-15T22:01:13;0.50;99.90
35804;DHT22;21924;51.934;7.414;2024-01-15T22:04:01;0.50;99.90
35804;DHT22;21924;51.934;7.414;2024-01-15T22:07:12;0.50;99.90
35804;DHT22;21924;51.934;7.414;2024-01-15T22:09:57;0.50;99.90
35804;DHT22;21924;51.934;7.414;2024-01-15T22:12:42;0.50;99.90
35804;DHT22;21924;51.934;7.414;2024-01-15T22:15:26;0.60;99.90
35804;DHT22;21924;51.934;7.414;2024-01-15T22:18:11;0.60;99.90
35804;DHT22;21924;51.934;7.414;2024-01-15T22:20:55;0.60;99.90
35804;DHT22;21924;51.934;7.414;2024-01-15T22:23:41;0.60;99.90
35804;DHT22;21924;51.934;7.414;2024-01-15T22:26:25;0.70;99.90
35804;DHT22;21924;51.934;7.414;2024-01-15T22:29:09;0.80;99.90
35804;DHT22;21924;51.934;7.414;2024-01-15T22:31:53;0.80;99.90
35804;DHT22;21924;51.934;7.414;2024-01-15T22:34:37;0.80;99.90
35804;DHT22;21924;51.934;7.414;2024-01-15T22:37:22;0.90;99.90
35804;DHT22;21924;51.934;7.414;2024-01-15T22:40:06;0.90;99.90
35804;DHT22;21924;51.934;7.414;2024-01-15T22:42:53;0.90;99.90
35804;DHT22;21924;51.934;7.414;2024-01-15T22:45:37;0.90;99.90
35804;DHT22;21924;51.934;7.414;2024-01-15T22:48:21;0.90;99.90
35804;DHT22;21924;51.934;7.414;2024-01-15T22:51:06;0.90;99.90
35804;DHT22;21924;51.934;7.414;2024-01-15T22:53:51;0.80;99.90
35804;DHT22;21924;51.934;7.414;2024-01-15T22:56:35;0.80;99.90
35804;DHT22;21924;51.934;7.414;2024-01-15T22:59:19;0.80;99.90
35804;DHT22;21924;51.934;7.414;2024-01-15T23:02:03;0.80;99.90
35804;DHT22;21924;51.934;7.414;2024-01-15T23:04:47;0.80;99.90
35804;DHT22;21924;51.934;7.414;2024-01-15T23:07:32;0.80;99.90
35804;DHT22;21924;51.934;7.414;2024-01-15T23:10:17;0.80;99.90
35804;DHT22;21924;51.934;7.414;2024-01-15T23:13:01;0.80;99.90
35804;DHT22;21924;51.934;7.414;2024-01-15T23:15:45;0.80;99.90
35804;DHT22;21924;51.934;7.414;2024-01-15T23:18:29;0.80;99.90
35804;DHT22;21924;51.934;7.414;2024-01-15T23:21:13;0.80;99.90
35804;DHT22;21924;51.934;7.414;2024-01-15T23:23:57;0.80;99.90
35804;DHT22;21924;51.934;7.414;2024-01-15T23:26:41;0.80;99.90
35804;DHT22;21924;51.934;7.414;2024-01-15T23:29:25;0.80;99.90
35804;DHT22;21924;51.934;7.414;2024-01-15T23:32:10;0.80;99.90
35804;DHT22;21924;51.934;7.414;2024-01-15T23:34:55;0.70;99.90
35804;DHT22;21924;51.934;7.414;2024-01-15T23:37:40;0.80;99.90
35804;DHT22;21924;51.934;7.414;2024-01-15T23:40:24;0.70;99.90
35804;DHT22;21924;51.934;7.414;2024-01-15T23:43:08;0.80;99.90
35804;DHT22;21924;51.934;7.414;2024-01-15T23:45:52;0.70;99.90
35804;DHT22;21924;51.934;7.414;2024-01-15T23:48:36;0.70;99.90
35804;DHT22;21924;51.934;7.414;2024-01-15T23:51:20;0.80;99.90
35804;DHT22;21924;51.934;7.414;2024-01-15T23:54:08;0.80;99.90